createdAt,value
2023-02-27T00:00:03.174Z,89.25
2023-02-27T00:05:02.788Z,89.03
2023-02-27T00:10:02.878Z,88.87
2023-02-27T00:15:02.921Z,87.68
2023-02-27T00:20:03.117Z,87.69
2023-02-27T00:25:02.872Z,87.98
2023-02-27T00:30:02.782Z,87.64
2023-02-27T00:35:03.473Z,86.8
2023-02-27T00:40:03.364Z,87.04
2023-02-27T00:45:03.289Z,86.63
2023-02-27T00:50:03.153Z,88.1
2023-02-27T00:55:03.339Z,88.26
2023-02-27T01:00:02.973Z,89.08
2023-02-27T01:05:03.534Z,89.64
2023-02-27T01:10:03.352Z,89.58
2023-02-27T01:15:03.131Z,89.61
2023-02-27T01:20:03.355Z,89.59
2023-02-27T01:25:03.253Z,89.87
2023-02-27T01:30:03.020Z,89.46
2023-02-27T01:35:02.704Z,89.77
2023-02-27T01:40:02.515Z,89.58
2023-02-27T01:45:03.554Z,89.95
2023-02-27T01:50:03.400Z,89.65
2023-02-27T01:55:03.013Z,89.87
2023-02-27T02:00:02.691Z,89.54
2023-02-27T02:05:02.731Z,88.83
2023-02-27T02:10:02.738Z,88.51
2023-02-27T02:15:03.014Z,89.3
2023-02-27T02:20:03.228Z,87.66
2023-02-27T02:25:03.007Z,87.48
2023-02-27T02:30:03.089Z,87.91
2023-02-27T02:35:02.787Z,87.65
2023-02-27T02:40:02.619Z,87.78
2023-02-27T02:45:03.551Z,87.89
2023-02-27T02:50:03.283Z,87.76
2023-02-27T02:55:03.425Z,87.65
2023-02-27T03:00:02.698Z,88.4
2023-02-27T03:05:02.772Z,90.98
2023-02-27T03:10:03.216Z,90.37
2023-02-27T03:15:03.308Z,89.09
2023-02-27T03:20:03.087Z,88.15
2023-02-27T03:25:02.789Z,88.3
2023-02-27T03:30:03.517Z,88.42
2023-02-27T03:35:02.580Z,89.47
2023-02-27T03:40:03.382Z,90.16
2023-02-27T03:45:03.256Z,90.65
2023-02-27T03:50:02.970Z,90.33
2023-02-27T03:55:03.002Z,91.19
2023-02-27T04:00:03.636Z,92.49
2023-02-27T04:05:03.107Z,92.86
2023-02-27T04:10:02.640Z,92.86
2023-02-27T04:15:02.672Z,93.29
2023-02-27T04:20:03.452Z,93.72
2023-02-27T04:25:03.221Z,94.27
2023-02-27T04:30:02.957Z,94.34
2023-02-27T04:35:02.851Z,94.57
2023-02-27T04:40:02.574Z,94.71
2023-02-27T04:45:03.495Z,94.88
2023-02-27T04:50:03.282Z,95.54
2023-02-27T04:55:03.889Z,95.77
2023-02-27T05:00:03.280Z,95.79
2023-02-27T05:05:02.933Z,98.41
2023-02-27T05:10:03.214Z,99.62
2023-02-27T05:15:03.005Z,100
2023-02-27T05:20:02.789Z,99.59
2023-02-27T05:25:03.528Z,100
2023-02-27T05:30:03.264Z,100
2023-02-27T05:35:03.015Z,100
2023-02-27T05:40:02.796Z,100
2023-02-27T05:45:02.568Z,100
2023-02-27T05:50:03.670Z,100
2023-02-27T05:55:03.315Z,99.21
2023-02-27T06:00:02.975Z,98.58
2023-02-27T06:05:02.566Z,97.61
2023-02-27T06:10:02.481Z,96.93
2023-02-27T06:15:03.252Z,96.99
2023-02-27T06:20:03.010Z,97.84
2023-02-27T06:25:02.412Z,99.91
2023-02-27T06:30:03.533Z,99.95
2023-02-27T06:35:03.429Z,100
2023-02-27T06:40:03.446Z,100
2023-02-27T06:45:03.336Z,100
2023-02-27T06:50:02.805Z,100
2023-02-27T06:55:03.008Z,100
2023-02-27T07:05:08.725Z,100
2023-02-27T07:10:02.683Z,100
2023-02-27T07:15:03.426Z,99.76
2023-02-27T07:20:02.550Z,99.28
2023-02-27T07:25:03.259Z,99.44
2023-02-27T07:30:02.986Z,100
2023-02-27T07:35:02.600Z,100
2023-02-27T07:40:03.442Z,98.86
2023-02-27T07:45:03.455Z,98.25
2023-02-27T07:50:04.939Z,99
2023-02-27T07:55:02.863Z,98.5
2023-02-27T08:00:03.158Z,98.15
2023-02-27T08:05:02.726Z,98.11
2023-02-27T08:10:02.501Z,96.99
2023-02-27T08:15:03.347Z,96.99
2023-02-27T08:20:03.129Z,95.2
2023-02-27T08:25:02.798Z,94.76
2023-02-27T08:30:03.770Z,95.6
2023-02-27T08:35:03.269Z,94.4
2023-02-27T08:40:02.680Z,93.48
2023-02-27T08:45:02.980Z,93.91
2023-02-27T08:50:03.598Z,96.26
2023-02-27T08:55:03.912Z,96.11
2023-02-27T09:00:03.760Z,94.13
2023-02-27T09:05:02.970Z,94.44
2023-02-27T09:10:02.843Z,94.5
2023-02-27T09:15:02.768Z,94.55
2023-02-27T09:20:02.933Z,92.68
2023-02-27T09:25:02.648Z,90.96
2023-02-27T09:30:03.338Z,87.47
2023-02-27T09:35:02.927Z,86.55
2023-02-27T09:40:02.747Z,88.96
2023-02-27T09:45:06.502Z,88.74
2023-02-27T09:50:03.645Z,88.38
2023-02-27T09:55:03.406Z,89.92
2023-02-27T10:00:02.618Z,87.98
2023-02-27T10:05:02.539Z,86.44
2023-02-27T10:10:03.429Z,85.71
2023-02-27T10:15:03.381Z,85.08
2023-02-27T10:20:03.340Z,85.35
2023-02-27T10:25:03.130Z,85.38
2023-02-27T10:30:03.113Z,85.48
2023-02-27T10:35:03.070Z,86.44
2023-02-27T10:40:02.956Z,86.8
2023-02-27T10:45:02.729Z,85.16
2023-02-27T10:50:03.492Z,82.5
2023-02-27T10:55:03.414Z,82.54
2023-02-27T11:00:03.076Z,83.18
2023-02-27T11:05:02.757Z,81.08
2023-02-27T11:10:02.909Z,76.65
2023-02-27T11:15:02.679Z,71.66
2023-02-27T11:20:03.439Z,78.55
2023-02-27T11:25:04.613Z,79.13
2023-02-27T11:30:03.294Z,78.53
2023-02-27T11:35:02.990Z,74.82
2023-02-27T11:40:02.880Z,70.78
2023-02-27T11:45:03.117Z,71.04
2023-02-27T11:50:03.567Z,69.91
2023-02-27T11:55:03.604Z,71.78
2023-02-27T12:00:03.191Z,65.9
2023-02-27T12:05:03.009Z,65.02
2023-02-27T12:10:03.075Z,53.09
2023-02-27T12:15:03.276Z,60.36
2023-02-27T12:20:02.782Z,58.31
2023-02-27T12:25:02.584Z,54.21
2023-02-27T12:30:03.298Z,54.23
2023-02-27T12:35:02.923Z,53.58
2023-02-27T12:40:02.697Z,49.15
2023-02-27T12:45:02.801Z,50.86
2023-02-27T12:50:02.520Z,54.07
2023-02-27T12:55:03.665Z,52.16
2023-02-27T13:00:03.099Z,50.95
2023-02-27T13:05:03.094Z,53.29
2023-02-27T13:10:03.296Z,56.34
2023-02-27T13:15:03.081Z,59.15
2023-02-27T13:20:02.952Z,59.91
2023-02-27T13:25:02.359Z,61.93
2023-02-27T13:30:03.567Z,60.03
2023-02-27T13:35:03.301Z,60.27
2023-02-27T13:40:03.101Z,59.95
2023-02-27T13:45:02.823Z,59.37
2023-02-27T13:50:02.703Z,60.43
2023-02-27T13:55:12.436Z,58.41
2023-02-27T14:00:02.577Z,58.1
2023-02-27T14:05:04.053Z,58.57
2023-02-27T14:10:03.215Z,56.38
2023-02-27T14:15:03.051Z,54.63
2023-02-27T14:20:03.080Z,56.14
2023-02-27T14:25:03.995Z,55.74
2023-02-27T14:30:03.455Z,54.33
2023-02-27T14:35:03.437Z,55.47
2023-02-27T14:40:03.751Z,56.17
2023-02-27T14:45:02.704Z,53.4
2023-02-27T14:50:03.398Z,55.86
2023-02-27T14:55:04.018Z,55.51
2023-02-27T15:00:02.934Z,56.12
2023-02-27T15:05:02.725Z,54.41
2023-02-27T15:10:07.102Z,55.78
2023-02-27T15:15:03.520Z,54.45
2023-02-27T15:20:03.040Z,55.23
2023-02-27T15:25:02.758Z,54.12
2023-02-27T15:30:02.794Z,55.71
2023-02-27T15:35:03.397Z,56.73
2023-02-27T15:40:03.111Z,57.95
2023-02-27T15:45:03.086Z,61.24
2023-02-27T15:50:03.320Z,61.67
2023-02-27T15:55:03.945Z,59.24
2023-02-27T16:00:03.186Z,60.99
2023-02-27T16:05:02.786Z,61.28
2023-02-27T16:10:03.140Z,59.3
2023-02-27T16:15:08.436Z,60.08
2023-02-27T16:20:03.321Z,58.53
2023-02-27T16:25:03.262Z,59.98
2023-02-27T16:30:03.565Z,58.76
2023-02-27T16:35:02.972Z,58.51
2023-02-27T16:40:02.854Z,57.29
2023-02-27T16:45:02.687Z,58.05
2023-02-27T16:50:02.595Z,58.43
2023-02-27T16:55:04.115Z,58.97
2023-02-27T17:00:03.257Z,61.08
2023-02-27T17:05:03.280Z,63.11
2023-02-27T17:10:02.761Z,65
2023-02-27T17:15:02.606Z,59.73
2023-02-27T17:20:03.541Z,58.58
2023-02-27T17:25:03.382Z,58.74
2023-02-27T17:30:03.300Z,57.19
2023-02-27T17:35:02.772Z,58.76
2023-02-27T17:40:02.711Z,59.38
2023-02-27T17:45:03.533Z,59.63
2023-02-27T17:50:03.445Z,59.98
2023-02-27T17:55:03.280Z,59.2
2023-02-27T18:00:02.401Z,62.6
2023-02-27T18:05:03.333Z,60.59
2023-02-27T18:10:03.211Z,60.92
2023-02-27T18:15:03.364Z,62.38
2023-02-27T18:20:03.335Z,63.51
2023-02-27T18:25:02.930Z,65.03
2023-02-27T18:30:03.574Z,65.85
2023-02-27T18:35:03.283Z,67.38
2023-02-27T18:40:02.946Z,67.49
2023-02-27T18:45:02.767Z,68.94
2023-02-27T18:50:02.567Z,70.21
2023-02-27T18:55:03.823Z,69.38
2023-02-27T19:00:03.061Z,70.11
2023-02-27T19:05:03.211Z,72.29
2023-02-27T19:10:02.922Z,73.56
2023-02-27T19:15:02.589Z,72.91
2023-02-27T19:20:03.299Z,74.73
2023-02-27T19:25:03.206Z,74.91
2023-02-27T19:30:03.118Z,75.05
2023-02-27T19:35:03.058Z,74.76
2023-02-27T19:40:02.753Z,74.8
2023-02-27T19:45:02.596Z,75.85
2023-02-27T19:50:03.321Z,78.24
2023-02-27T19:55:03.261Z,78.7
2023-02-27T20:00:02.890Z,77.61
2023-02-27T20:05:02.838Z,80.08
2023-02-27T20:10:03.366Z,80.41
2023-02-27T20:15:02.948Z,82.52
2023-02-27T20:20:03.200Z,82.11
2023-02-27T20:25:02.957Z,80
2023-02-27T20:30:02.658Z,77.16
2023-02-27T20:35:02.681Z,75.62
2023-02-27T20:40:03.402Z,74.66
2023-02-27T20:45:03.233Z,71.62
2023-02-27T20:50:03.238Z,71.2
2023-02-27T20:55:03.384Z,70.28
2023-02-27T21:00:02.717Z,72.45
2023-02-27T21:05:03.855Z,73.16
2023-02-27T21:10:03.212Z,76.06
2023-02-27T21:15:03.000Z,77.45
2023-02-27T21:20:06.987Z,77.88
2023-02-27T21:25:02.801Z,77.59
2023-02-27T21:30:03.526Z,77.67
2023-02-27T21:35:03.212Z,78.59
2023-02-27T21:40:02.854Z,78.28
2023-02-27T21:45:03.085Z,79.14
2023-02-27T21:50:02.595Z,78.27
2023-02-27T21:55:03.616Z,78.27
2023-02-27T22:00:03.205Z,78.09
2023-02-27T22:05:03.353Z,78.19
2023-02-27T22:10:03.255Z,77.77
2023-02-27T22:15:02.993Z,78.72
2023-02-27T22:20:03.449Z,78.77
2023-02-27T22:25:03.298Z,78.66
2023-02-27T22:30:02.930Z,78
2023-02-27T22:35:02.502Z,78.48
2023-02-27T22:40:02.575Z,80.41
2023-02-27T22:45:03.445Z,80.82
2023-02-27T22:50:03.117Z,80.85
2023-02-27T22:55:03.066Z,79.47
2023-02-27T23:00:03.043Z,79.65
2023-02-27T23:05:02.859Z,80.59
2023-02-27T23:10:02.813Z,81.28
2023-02-27T23:15:02.805Z,81.98
2023-02-27T23:20:03.461Z,82.98
2023-02-27T23:25:03.236Z,82.92
2023-02-27T23:30:03.008Z,80.67
2023-02-27T23:35:03.098Z,80.61
2023-02-27T23:40:02.606Z,80.26
2023-02-27T23:45:03.403Z,80.7
2023-02-27T23:50:03.004Z,82.09
2023-02-27T23:55:03.603Z,81.05
